createdAt,value
2022-12-18T00:00:23.494Z,1015.44
2022-12-18T00:01:23.550Z,1015.45
2022-12-18T00:02:23.476Z,1015.44
2022-12-18T00:03:23.596Z,1015.46
2022-12-18T00:04:23.631Z,1015.44
2022-12-18T00:05:23.452Z,1015.45
2022-12-18T00:06:23.432Z,1015.44
2022-12-18T00:07:23.420Z,1015.44
2022-12-18T00:08:23.403Z,1015.44
2022-12-18T00:09:24.066Z,1015.43
2022-12-18T00:10:23.384Z,1015.43
2022-12-18T00:11:23.376Z,1015.41
2022-12-18T00:12:23.366Z,1015.40
2022-12-18T00:13:23.345Z,1015.46
2022-12-18T00:14:23.343Z,1015.42
2022-12-18T00:15:23.323Z,1015.41
2022-12-18T00:16:23.408Z,1015.43
2022-12-18T00:17:23.293Z,1015.42
2022-12-18T00:18:23.284Z,1015.40
2022-12-18T00:19:23.274Z,1015.43
2022-12-18T00:20:23.265Z,1015.39
2022-12-18T00:21:23.244Z,1015.44
2022-12-18T00:22:23.235Z,1015.43
2022-12-18T00:23:23.224Z,1015.44
2022-12-18T00:24:23.233Z,1015.40
2022-12-18T00:25:23.215Z,1015.46
2022-12-18T00:26:23.181Z,1015.49
2022-12-18T00:27:23.185Z,1015.53
2022-12-18T00:28:23.155Z,1015.51
2022-12-18T00:29:23.165Z,1015.52
2022-12-18T00:30:23.144Z,1015.53
2022-12-18T00:31:23.175Z,1015.53
2022-12-18T00:32:23.117Z,1015.48
2022-12-18T00:33:23.105Z,1015.45
2022-12-18T00:34:23.111Z,1015.43
2022-12-18T00:35:23.087Z,1015.45
2022-12-18T00:36:23.068Z,1015.44
2022-12-18T00:37:23.062Z,1015.40
2022-12-18T00:38:23.040Z,1015.41
2022-12-18T00:39:23.045Z,1015.40
2022-12-18T00:40:23.016Z,1015.39
2022-12-18T00:41:23.004Z,1015.40
2022-12-18T00:42:22.985Z,1015.44
2022-12-18T00:43:22.987Z,1015.46
2022-12-18T00:44:22.975Z,1015.43
2022-12-18T00:45:23.038Z,1015.42
2022-12-18T00:46:22.946Z,1015.38
2022-12-18T00:47:22.926Z,1015.40
2022-12-18T00:48:22.926Z,1015.40
2022-12-18T00:49:22.933Z,1015.42
2022-12-18T00:50:23.844Z,1015.41
2022-12-18T00:51:22.885Z,1015.47
2022-12-18T00:52:22.864Z,1015.49
2022-12-18T00:53:22.866Z,1015.50
2022-12-18T00:54:22.855Z,1015.61
2022-12-18T00:55:23.793Z,1015.57
2022-12-18T00:56:22.825Z,1015.58
2022-12-18T00:57:22.825Z,1015.59
2022-12-18T00:58:22.796Z,1015.57
2022-12-18T00:59:22.808Z,1015.56
2022-12-18T01:00:23.717Z,1015.59
2022-12-18T01:01:22.940Z,1015.57
2022-12-18T01:02:22.860Z,1015.56
2022-12-18T01:03:22.754Z,1015.59
2022-12-18T01:04:22.736Z,1015.58
2022-12-18T01:05:22.717Z,1015.58
2022-12-18T01:06:22.695Z,1015.61
2022-12-18T01:07:22.714Z,1015.58
2022-12-18T01:08:22.679Z,1015.57
2022-12-18T01:09:22.687Z,1015.67
2022-12-18T01:10:22.660Z,1015.64
2022-12-18T01:11:22.646Z,1015.65
2022-12-18T01:12:22.627Z,1015.60
2022-12-18T01:13:22.636Z,1015.54
2022-12-18T01:14:22.626Z,1015.50
2022-12-18T01:15:23.575Z,1015.50
2022-12-18T01:16:22.632Z,1015.50
2022-12-18T01:17:22.597Z,1015.50
2022-12-18T01:18:22.567Z,1015.54
2022-12-18T01:19:22.576Z,1015.60
2022-12-18T01:20:22.548Z,1015.59
2022-12-18T01:21:22.544Z,1015.62
2022-12-18T01:22:22.526Z,1015.68
2022-12-18T01:23:22.505Z,1015.67
2022-12-18T01:24:22.497Z,1015.70
2022-12-18T01:25:22.499Z,1015.72
2022-12-18T01:26:23.426Z,1015.69
2022-12-18T01:27:22.457Z,1015.74
2022-12-18T01:28:22.452Z,1015.74
2022-12-18T01:29:22.434Z,1015.71
2022-12-18T01:30:22.431Z,1015.72
2022-12-18T01:31:22.434Z,1015.75
2022-12-18T01:32:22.408Z,1015.73
2022-12-18T01:33:22.389Z,1015.72
2022-12-18T01:34:22.396Z,1015.81
2022-12-18T01:35:22.380Z,1015.81
2022-12-18T01:36:22.350Z,1015.79
2022-12-18T01:37:22.341Z,1015.78
2022-12-18T01:38:22.558Z,1015.83
2022-12-18T01:39:22.318Z,1015.80
2022-12-18T01:40:22.308Z,1015.83
2022-12-18T01:41:22.292Z,1015.83
2022-12-18T01:42:22.278Z,1015.81
2022-12-18T01:43:22.261Z,1015.84
2022-12-18T01:44:22.269Z,1015.87
2022-12-18T01:45:22.248Z,1015.92
2022-12-18T01:46:22.267Z,1015.91
2022-12-18T01:47:22.219Z,1015.92
2022-12-18T01:48:22.208Z,1015.91
2022-12-18T01:49:22.207Z,1015.93
2022-12-18T01:50:22.188Z,1015.93
2022-12-18T01:51:22.167Z,1015.90
2022-12-18T01:52:22.168Z,1015.88
2022-12-18T01:53:22.150Z,1015.96
2022-12-18T01:54:22.147Z,1015.94
2022-12-18T01:55:22.129Z,1015.95
2022-12-18T01:56:22.108Z,1015.95
2022-12-18T01:57:22.109Z,1015.88
2022-12-18T01:58:22.085Z,1015.90
2022-12-18T01:59:22.089Z,1015.92
2022-12-18T02:00:22.060Z,1015.95
2022-12-18T02:01:22.158Z,1015.90
2022-12-18T02:02:22.116Z,1015.96
2022-12-18T02:03:22.138Z,1015.97
2022-12-18T02:04:22.050Z,1016.02
2022-12-18T02:05:22.000Z,1016.02
2022-12-18T02:06:21.989Z,1016.04
2022-12-18T02:07:21.969Z,1016.08
2022-12-18T02:08:21.980Z,1016.08
2022-12-18T02:09:21.979Z,1016.04
2022-12-18T02:10:21.949Z,1016.05
2022-12-18T02:11:21.933Z,1016.04
2022-12-18T02:12:21.912Z,1016.03
2022-12-18T02:13:21.922Z,1016.01
2022-12-18T02:14:21.921Z,1016.04
2022-12-18T02:15:21.881Z,1016.03
2022-12-18T02:16:21.988Z,1016.02
2022-12-18T02:17:21.849Z,1016.04
2022-12-18T02:18:21.839Z,1015.97
2022-12-18T02:19:21.831Z,1016.01
2022-12-18T02:20:22.782Z,1015.97
2022-12-18T02:21:21.800Z,1015.97
2022-12-18T02:22:21.826Z,1015.97
2022-12-18T02:23:21.781Z,1016.00
2022-12-18T02:24:21.790Z,1016.01
2022-12-18T02:25:21.756Z,1016.02
2022-12-18T02:26:22.708Z,1015.98
2022-12-18T02:27:21.729Z,1016.07
2022-12-18T02:28:21.722Z,1016.06
2022-12-18T02:29:21.942Z,1016.06
2022-12-18T02:30:21.725Z,1016.01
2022-12-18T02:31:21.679Z,1016.00
2022-12-18T02:32:21.670Z,1016.05
2022-12-18T02:33:21.661Z,1016.00
2022-12-18T02:34:21.661Z,1016.02
2022-12-18T02:35:21.637Z,1016.05
2022-12-18T02:36:21.631Z,1016.01
2022-12-18T02:37:21.621Z,1016.02
2022-12-18T02:38:21.601Z,1016.00
2022-12-18T02:39:21.603Z,1015.97
2022-12-18T02:40:21.579Z,1015.97
2022-12-18T02:41:21.560Z,1015.96
2022-12-18T02:42:21.552Z,1015.93
2022-12-18T02:43:21.531Z,1015.93
2022-12-18T02:44:21.540Z,1015.95
2022-12-18T02:45:21.769Z,1015.94
2022-12-18T02:46:21.526Z,1015.95
2022-12-18T02:47:21.490Z,1015.95
2022-12-18T02:48:21.491Z,1015.96
2022-12-18T02:49:21.472Z,1015.98
2022-12-18T02:50:21.467Z,1015.94
2022-12-18T02:51:21.440Z,1015.98
2022-12-18T02:52:21.441Z,1015.96
2022-12-18T02:53:21.412Z,1015.94
2022-12-18T02:54:21.434Z,1015.93
2022-12-18T02:55:21.391Z,1015.93
2022-12-18T02:56:21.392Z,1015.91
2022-12-18T02:57:21.381Z,1015.96
2022-12-18T02:58:21.366Z,1015.91
2022-12-18T02:59:21.381Z,1015.92
2022-12-18T03:00:21.332Z,1015.87
2022-12-18T03:01:21.400Z,1015.89
2022-12-18T03:02:21.451Z,1015.87
2022-12-18T03:03:21.328Z,1015.86
2022-12-18T03:04:21.292Z,1015.90
2022-12-18T03:05:21.285Z,1015.89
2022-12-18T03:06:21.263Z,1015.95
2022-12-18T03:07:21.243Z,1015.91
2022-12-18T03:08:22.433Z,1015.90
2022-12-18T03:09:21.491Z,1015.95
2022-12-18T03:10:21.212Z,1015.93
2022-12-18T03:11:21.203Z,1015.91
2022-12-18T03:12:21.192Z,1015.89
2022-12-18T03:13:21.180Z,1015.94
2022-12-18T03:14:21.172Z,1016.01
2022-12-18T03:15:21.163Z,1016.01
2022-12-18T03:16:21.168Z,1016.00
2022-12-18T03:17:21.131Z,1016.02
2022-12-18T03:18:21.112Z,1015.98
2022-12-18T03:19:21.293Z,1016.03
2022-12-18T03:20:21.088Z,1016.07
2022-12-18T03:21:21.074Z,1016.07
2022-12-18T03:22:21.072Z,1016.12
2022-12-18T03:23:25.539Z,1016.19
2022-12-18T03:24:22.053Z,1016.21
2022-12-18T03:25:21.031Z,1016.16
2022-12-18T03:26:21.013Z,1016.18
2022-12-18T03:27:21.003Z,1016.20
2022-12-18T03:28:20.993Z,1016.20
2022-12-18T03:29:21.000Z,1016.20
2022-12-18T03:30:20.980Z,1016.21
2022-12-18T03:31:21.004Z,1016.25
2022-12-18T03:32:20.944Z,1016.25
2022-12-18T03:33:20.934Z,1016.26
2022-12-18T03:34:20.924Z,1016.30
2022-12-18T03:35:20.914Z,1016.32
2022-12-18T03:36:20.903Z,1016.28
2022-12-18T03:37:20.884Z,1016.25
2022-12-18T03:38:22.864Z,1016.30
2022-12-18T03:39:20.873Z,1016.24
2022-12-18T03:40:20.854Z,1016.22
2022-12-18T03:41:20.833Z,1016.21
2022-12-18T03:42:20.834Z,1016.26
2022-12-18T03:43:20.834Z,1016.27
2022-12-18T03:44:20.814Z,1016.31
2022-12-18T03:45:20.796Z,1016.30
2022-12-18T03:46:20.849Z,1016.31
2022-12-18T03:47:20.768Z,1016.31
2022-12-18T03:48:20.761Z,1016.32
2022-12-18T03:49:20.754Z,1016.35
2022-12-18T03:50:20.735Z,1016.35
2022-12-18T03:51:20.714Z,1016.39
2022-12-18T03:52:20.713Z,1016.37
2022-12-18T03:53:20.684Z,1016.39
2022-12-18T03:54:20.704Z,1016.39
2022-12-18T03:55:20.685Z,1016.38
2022-12-18T03:56:20.660Z,1016.42
2022-12-18T03:57:20.635Z,1016.40
2022-12-18T03:58:20.635Z,1016.31
2022-12-18T03:59:20.626Z,1016.38
2022-12-18T04:00:20.605Z,1016.30
2022-12-18T04:01:20.672Z,1016.28
2022-12-18T04:02:20.638Z,1016.30
2022-12-18T04:03:23.957Z,1016.30
2022-12-18T04:04:21.574Z,1016.32
2022-12-18T04:05:20.554Z,1016.33
2022-12-18T04:06:20.544Z,1016.30
2022-12-18T04:07:20.524Z,1016.28
2022-12-18T04:08:21.476Z,1016.31
2022-12-18T04:09:20.515Z,1016.29
2022-12-18T04:10:20.493Z,1016.29
2022-12-18T04:11:20.476Z,1016.28
2022-12-18T04:12:20.476Z,1016.32
2022-12-18T04:13:20.445Z,1016.26
2022-12-18T04:14:20.455Z,1016.30
2022-12-18T04:15:20.425Z,1016.27
2022-12-18T04:16:20.479Z,1016.26
2022-12-18T04:17:20.396Z,1016.25
2022-12-18T04:18:20.399Z,1016.27
2022-12-18T04:19:20.385Z,1016.28
2022-12-18T04:20:20.376Z,1016.29
2022-12-18T04:21:20.353Z,1016.29
2022-12-18T04:22:20.335Z,1016.34
2022-12-18T04:23:20.325Z,1016.30
2022-12-18T04:24:20.343Z,1016.32
2022-12-18T04:25:20.313Z,1016.27
2022-12-18T04:26:20.303Z,1016.23
2022-12-18T04:27:20.276Z,1016.24
2022-12-18T04:28:20.286Z,1016.28
2022-12-18T04:29:20.266Z,1016.22
2022-12-18T04:30:20.257Z,1016.20
2022-12-18T04:31:20.247Z,1016.17
2022-12-18T04:32:20.237Z,1016.19
2022-12-18T04:33:20.206Z,1016.19
2022-12-18T04:34:20.226Z,1016.21
2022-12-18T04:35:20.187Z,1016.21
2022-12-18T04:36:20.178Z,1016.18
2022-12-18T04:37:20.165Z,1016.22
2022-12-18T04:38:20.161Z,1016.17
2022-12-18T04:39:20.147Z,1016.17
2022-12-18T04:40:20.137Z,1016.12
2022-12-18T04:41:20.125Z,1016.20
2022-12-18T04:42:20.107Z,1016.14
2022-12-18T04:43:20.195Z,1016.17
2022-12-18T04:44:20.118Z,1016.22
2022-12-18T04:45:20.066Z,1016.18
2022-12-18T04:46:20.106Z,1016.22
2022-12-18T04:47:20.056Z,1016.20
2022-12-18T04:48:20.047Z,1016.27
2022-12-18T04:49:20.018Z,1016.22
2022-12-18T04:50:20.018Z,1016.17
2022-12-18T04:51:26.112Z,1016.21
2022-12-18T04:52:23.293Z,1016.19
2022-12-18T04:53:19.968Z,1016.14
2022-12-18T04:54:19.977Z,1016.22
2022-12-18T04:55:19.948Z,1016.19
2022-12-18T04:56:19.942Z,1016.13
2022-12-18T04:57:19.917Z,1016.14
2022-12-18T04:58:19.918Z,1016.10
2022-12-18T04:59:19.918Z,1016.09
2022-12-18T05:00:19.900Z,1016.12
2022-12-18T05:01:19.981Z,1016.12
2022-12-18T05:02:19.988Z,1016.09
2022-12-18T05:03:19.888Z,1016.11
2022-12-18T05:04:19.881Z,1016.17
2022-12-18T05:05:19.834Z,1016.18
2022-12-18T05:06:19.818Z,1016.22
2022-12-18T05:07:19.806Z,1016.25
2022-12-18T05:08:19.798Z,1016.30
2022-12-18T05:09:19.790Z,1016.30
2022-12-18T05:10:19.777Z,1016.32
2022-12-18T05:11:19.758Z,1016.36
2022-12-18T05:12:19.749Z,1016.38
2022-12-18T05:13:19.748Z,1016.41
2022-12-18T05:14:19.736Z,1016.39
2022-12-18T05:15:19.710Z,1016.44
2022-12-18T05:16:19.747Z,1016.45
2022-12-18T05:17:19.689Z,1016.42
2022-12-18T05:18:19.693Z,1016.37
2022-12-18T05:19:19.678Z,1016.35
2022-12-18T05:20:19.660Z,1016.40
2022-12-18T05:21:19.639Z,1016.37
2022-12-18T05:22:19.639Z,1016.35
2022-12-18T05:23:19.618Z,1016.36
2022-12-18T05:24:19.618Z,1016.38
2022-12-18T05:25:19.598Z,1016.29
2022-12-18T05:26:19.580Z,1016.29
2022-12-18T05:27:19.568Z,1016.25
2022-12-18T05:28:19.559Z,1016.28
2022-12-18T05:29:19.797Z,1016.29
2022-12-18T05:30:19.540Z,1016.26
2022-12-18T05:31:19.553Z,1016.22
2022-12-18T05:32:19.518Z,1016.30
2022-12-18T05:33:19.502Z,1016.35
2022-12-18T05:34:19.510Z,1016.34
2022-12-18T05:35:19.478Z,1016.35
2022-12-18T05:36:19.470Z,1016.36
2022-12-18T05:37:19.460Z,1016.32
2022-12-18T05:38:19.439Z,1016.40
2022-12-18T05:39:19.461Z,1016.38
2022-12-18T05:40:19.419Z,1016.42
2022-12-18T05:41:19.420Z,1016.40
2022-12-18T05:42:19.409Z,1016.42
2022-12-18T05:43:21.402Z,1016.43
2022-12-18T05:44:19.370Z,1016.42
2022-12-18T05:45:19.366Z,1016.40
2022-12-18T05:46:19.367Z,1016.40
2022-12-18T05:47:19.341Z,1016.43
2022-12-18T05:48:19.320Z,1016.40
2022-12-18T05:49:19.319Z,1016.45
2022-12-18T05:50:19.299Z,1016.48
2022-12-18T05:51:19.291Z,1016.54
2022-12-18T05:52:19.282Z,1016.57
2022-12-18T05:53:19.279Z,1016.61
2022-12-18T05:54:19.271Z,1016.59
2022-12-18T05:55:19.250Z,1016.62
2022-12-18T05:56:19.229Z,1016.60
2022-12-18T05:57:19.227Z,1016.61
2022-12-18T05:58:19.206Z,1016.59
2022-12-18T05:59:19.214Z,1016.60
2022-12-18T06:00:19.181Z,1016.60
2022-12-18T06:01:19.238Z,1016.61
2022-12-18T06:02:19.209Z,1016.61
2022-12-18T06:03:19.225Z,1016.64
2022-12-18T06:04:19.142Z,1016.63
2022-12-18T06:05:19.401Z,1016.67
2022-12-18T06:06:19.111Z,1016.69
2022-12-18T06:07:19.101Z,1016.66
2022-12-18T06:08:19.091Z,1016.72
2022-12-18T06:09:19.091Z,1016.71
2022-12-18T06:10:19.061Z,1016.68
2022-12-18T06:11:19.062Z,1016.66
2022-12-18T06:12:19.039Z,1016.68
2022-12-18T06:13:19.032Z,1016.66
2022-12-18T06:14:19.022Z,1016.75
2022-12-18T06:15:19.002Z,1016.76
2022-12-18T06:16:19.024Z,1016.74
2022-12-18T06:17:18.992Z,1016.74
2022-12-18T06:18:18.973Z,1016.70
2022-12-18T06:19:18.974Z,1016.72
2022-12-18T06:20:18.951Z,1016.74
2022-12-18T06:21:18.941Z,1016.68
2022-12-18T06:22:18.921Z,1016.73
2022-12-18T06:23:18.912Z,1016.80
2022-12-18T06:24:18.905Z,1016.78
2022-12-18T06:25:18.894Z,1016.77
2022-12-18T06:26:23.296Z,1016.79
2022-12-18T06:27:19.872Z,1016.75
2022-12-18T06:28:18.849Z,1016.80
2022-12-18T06:29:18.842Z,1016.82
2022-12-18T06:30:18.829Z,1016.86
2022-12-18T06:31:18.911Z,1016.85
2022-12-18T06:32:18.801Z,1016.90
2022-12-18T06:33:18.792Z,1016.86
2022-12-18T06:34:18.793Z,1016.90
2022-12-18T06:35:18.772Z,1016.89
2022-12-18T06:36:18.765Z,1016.87
2022-12-18T06:37:18.752Z,1016.92
2022-12-18T06:38:18.732Z,1016.86
2022-12-18T06:39:18.733Z,1016.93
2022-12-18T06:40:18.711Z,1016.83
2022-12-18T06:41:18.693Z,1016.88
2022-12-18T06:42:18.682Z,1016.85
2022-12-18T06:43:18.664Z,1016.93
2022-12-18T06:44:18.663Z,1016.88
2022-12-18T06:45:18.675Z,1016.93
2022-12-18T06:46:18.978Z,1016.96
2022-12-18T06:47:18.622Z,1017.02
2022-12-18T06:48:18.607Z,1016.93
2022-12-18T06:49:18.603Z,1016.86
2022-12-18T06:50:18.589Z,1016.83
2022-12-18T06:51:18.576Z,1016.85
2022-12-18T06:52:18.564Z,1016.80
2022-12-18T06:53:18.555Z,1016.80
2022-12-18T06:54:18.543Z,1016.80
2022-12-18T06:55:18.522Z,1016.78
2022-12-18T06:56:18.515Z,1016.80
2022-12-18T06:57:18.514Z,1016.86
2022-12-18T06:58:18.494Z,1016.82
2022-12-18T06:59:18.487Z,1016.79
2022-12-18T07:00:18.463Z,1016.80
2022-12-18T07:01:18.541Z,1016.81
2022-12-18T07:02:18.570Z,1016.82
2022-12-18T07:03:18.429Z,1016.87
2022-12-18T07:04:18.432Z,1016.84
2022-12-18T07:05:18.404Z,1016.85
2022-12-18T07:06:18.559Z,1016.91
2022-12-18T07:07:18.388Z,1016.87
2022-12-18T07:08:18.371Z,1016.92
2022-12-18T07:09:18.631Z,1016.91
2022-12-18T07:10:18.343Z,1016.91
2022-12-18T07:11:18.336Z,1016.94
2022-12-18T07:12:18.314Z,1016.90
2022-12-18T07:13:18.314Z,1016.91
2022-12-18T07:14:18.313Z,1016.88
2022-12-18T07:15:18.284Z,1016.93
2022-12-18T07:16:24.301Z,1016.94
2022-12-18T07:17:19.298Z,1016.94
2022-12-18T07:18:18.254Z,1016.98
2022-12-18T07:19:18.245Z,1016.99
2022-12-18T07:20:18.224Z,1017.04
2022-12-18T07:21:18.225Z,1017.04
2022-12-18T07:22:18.195Z,1017.00
2022-12-18T07:23:18.206Z,1017.05
2022-12-18T07:24:18.185Z,1017.05
2022-12-18T07:25:18.180Z,1017.01
2022-12-18T07:26:18.155Z,1017.01
2022-12-18T07:27:18.155Z,1017.00
2022-12-18T07:28:18.126Z,1017.04
2022-12-18T07:29:18.144Z,1017.00
2022-12-18T07:30:18.105Z,1017.06
2022-12-18T07:31:18.137Z,1017.10
2022-12-18T07:32:18.094Z,1017.13
2022-12-18T07:33:18.094Z,1017.12
2022-12-18T07:34:18.093Z,1017.10
2022-12-18T07:35:22.051Z,1017.10
2022-12-18T07:36:19.044Z,1017.11
2022-12-18T07:37:18.034Z,1017.11
2022-12-18T07:38:18.035Z,1017.10
2022-12-18T07:39:18.060Z,1017.15
2022-12-18T07:40:17.999Z,1017.11
2022-12-18T07:41:18.016Z,1017.12
2022-12-18T07:42:17.965Z,1017.08
2022-12-18T07:43:17.961Z,1017.09
2022-12-18T07:44:17.959Z,1017.10
2022-12-18T07:45:17.934Z,1017.12
2022-12-18T07:46:17.982Z,1017.11
2022-12-18T07:47:17.908Z,1017.03
2022-12-18T07:48:17.916Z,1017.06
2022-12-18T07:49:17.896Z,1017.01
2022-12-18T07:50:17.877Z,1017.07
2022-12-18T07:51:17.866Z,1017.02
2022-12-18T07:52:20.332Z,1017.06
2022-12-18T07:53:18.846Z,1017.06
2022-12-18T07:54:17.834Z,1017.09
2022-12-18T07:55:17.817Z,1017.10
2022-12-18T07:56:27.140Z,1017.16
2022-12-18T07:57:41.845Z,1017.19
2022-12-18T07:58:18.777Z,1017.21
2022-12-18T07:59:17.776Z,1017.19
2022-12-18T08:00:17.748Z,1017.21
2022-12-18T08:01:17.814Z,1017.25
2022-12-18T08:02:17.874Z,1017.23
2022-12-18T08:03:17.796Z,1017.23
2022-12-18T08:04:17.706Z,1017.29
2022-12-18T08:05:17.696Z,1017.29
2022-12-18T08:06:17.685Z,1017.30
2022-12-18T08:07:17.667Z,1017.34
2022-12-18T08:08:17.656Z,1017.37
2022-12-18T08:09:17.663Z,1017.38
2022-12-18T08:10:17.626Z,1017.40
2022-12-18T08:11:17.647Z,1017.42
2022-12-18T08:12:17.606Z,1017.42
2022-12-18T08:13:17.606Z,1017.41
2022-12-18T08:14:17.624Z,1017.41
2022-12-18T08:15:17.578Z,1017.36
2022-12-18T08:16:17.615Z,1017.38
2022-12-18T08:17:17.548Z,1017.39
2022-12-18T08:18:17.550Z,1017.34
2022-12-18T08:19:17.535Z,1017.34
2022-12-18T08:20:17.519Z,1017.33
2022-12-18T08:21:17.508Z,1017.32
2022-12-18T08:22:17.487Z,1017.35
2022-12-18T08:23:17.491Z,1017.33
2022-12-18T08:24:17.467Z,1017.38
2022-12-18T08:25:17.467Z,1017.39
2022-12-18T08:26:17.439Z,1017.38
2022-12-18T08:27:32.778Z,1017.38
2022-12-18T08:28:18.417Z,1017.38
2022-12-18T08:29:21.490Z,1017.35
2022-12-18T08:30:17.387Z,1017.41
2022-12-18T08:31:17.409Z,1017.37
2022-12-18T08:32:17.430Z,1017.37
2022-12-18T08:33:17.355Z,1017.38
2022-12-18T08:34:17.382Z,1017.39
2022-12-18T08:35:18.796Z,1017.39
2022-12-18T08:36:17.318Z,1017.38
2022-12-18T08:37:17.312Z,1017.37
2022-12-18T08:38:17.305Z,1017.43
2022-12-18T08:39:17.298Z,1017.44
2022-12-18T08:40:17.277Z,1017.45
2022-12-18T08:41:17.260Z,1017.48
2022-12-18T08:42:17.267Z,1017.53
2022-12-18T08:43:17.238Z,1017.51
2022-12-18T08:44:17.230Z,1017.56
2022-12-18T08:45:17.219Z,1017.57
2022-12-18T08:46:17.359Z,1017.62
2022-12-18T08:47:17.194Z,1017.56
2022-12-18T08:48:22.003Z,1017.55
2022-12-18T08:49:18.179Z,1017.58
2022-12-18T08:50:17.151Z,1017.58
2022-12-18T08:51:17.148Z,1017.54
2022-12-18T08:52:17.138Z,1017.55
2022-12-18T08:53:17.120Z,1017.51
2022-12-18T08:54:17.117Z,1017.45
2022-12-18T08:55:17.104Z,1017.40
2022-12-18T08:56:19.071Z,1017.39
2022-12-18T08:57:17.095Z,1017.42
2022-12-18T08:58:17.061Z,1017.35
2022-12-18T08:59:19.677Z,1017.32
2022-12-18T09:00:17.037Z,1017.37
2022-12-18T09:01:17.104Z,1017.40
2022-12-18T09:02:17.195Z,1017.37
2022-12-18T09:03:17.027Z,1017.43
2022-12-18T09:04:16.989Z,1017.43
2022-12-18T09:05:16.973Z,1017.41
2022-12-18T09:06:16.969Z,1017.43
2022-12-18T09:07:16.955Z,1017.38
2022-12-18T09:08:16.929Z,1017.46
2022-12-18T09:09:16.929Z,1017.46
2022-12-18T09:10:16.911Z,1017.52
2022-12-18T09:11:16.915Z,1017.56
2022-12-18T09:12:16.890Z,1017.58
2022-12-18T09:13:16.880Z,1017.57
2022-12-18T09:14:16.871Z,1017.64
2022-12-18T09:15:16.871Z,1017.64
2022-12-18T09:16:16.874Z,1017.61
2022-12-18T09:17:16.907Z,1017.62
2022-12-18T09:18:16.810Z,1017.65
2022-12-18T09:19:16.827Z,1017.58
2022-12-18T09:20:16.795Z,1017.63
2022-12-18T09:21:16.801Z,1017.64
2022-12-18T09:22:16.772Z,1017.61
2022-12-18T09:23:16.762Z,1017.60
2022-12-18T09:24:16.755Z,1017.53
2022-12-18T09:25:16.762Z,1017.54
2022-12-18T09:26:16.715Z,1017.52
2022-12-18T09:27:16.711Z,1017.48
2022-12-18T09:28:16.690Z,1017.44
2022-12-18T09:29:18.799Z,1017.43
2022-12-18T09:30:16.679Z,1017.39
2022-12-18T09:31:17.652Z,1017.38
2022-12-18T09:32:22.218Z,1017.36
2022-12-18T09:33:17.656Z,1017.37
2022-12-18T09:34:16.633Z,1017.33
2022-12-18T09:35:16.602Z,1017.32
2022-12-18T09:36:16.594Z,1017.37
2022-12-18T09:37:16.583Z,1017.34
2022-12-18T09:38:16.563Z,1017.35
2022-12-18T09:39:16.572Z,1017.31
2022-12-18T09:40:16.550Z,1017.31
2022-12-18T09:41:17.498Z,1017.27
2022-12-18T09:42:16.513Z,1017.24
2022-12-18T09:43:16.511Z,1017.25
2022-12-18T09:44:16.540Z,1017.18
2022-12-18T09:45:16.524Z,1017.20
2022-12-18T09:46:17.455Z,1017.19
2022-12-18T09:47:16.452Z,1017.13
2022-12-18T09:48:16.442Z,1017.14
2022-12-18T09:49:16.452Z,1017.12
2022-12-18T09:50:17.512Z,1017.06
2022-12-18T09:51:16.421Z,1017.10
2022-12-18T09:52:16.392Z,1017.10
2022-12-18T09:53:16.384Z,1017.07
2022-12-18T09:54:16.373Z,1017.07
2022-12-18T09:55:16.362Z,1017.03
2022-12-18T09:56:16.340Z,1017.02
2022-12-18T09:57:16.325Z,1016.99
2022-12-18T09:58:16.324Z,1017.06
2022-12-18T09:59:16.313Z,1017.01
2022-12-18T10:00:16.303Z,1016.94
2022-12-18T10:01:16.432Z,1016.95
2022-12-18T10:02:16.399Z,1016.95
2022-12-18T10:03:16.358Z,1016.91
2022-12-18T10:04:16.315Z,1016.93
2022-12-18T10:05:16.232Z,1016.92
2022-12-18T10:06:16.497Z,1016.94
2022-12-18T10:07:16.236Z,1016.92
2022-12-18T10:08:16.194Z,1016.89
2022-12-18T10:09:16.183Z,1016.88
2022-12-18T10:10:16.186Z,1016.88
2022-12-18T10:11:16.161Z,1016.86
2022-12-18T10:12:16.154Z,1016.78
2022-12-18T10:13:16.134Z,1016.73
2022-12-18T10:14:16.135Z,1016.71
2022-12-18T10:15:16.098Z,1016.70
2022-12-18T10:16:16.229Z,1016.66
2022-12-18T10:17:16.074Z,1016.64
2022-12-18T10:18:20.300Z,1016.59
2022-12-18T10:19:17.055Z,1016.59
2022-12-18T10:20:16.044Z,1016.56
2022-12-18T10:21:16.025Z,1016.54
2022-12-18T10:22:16.034Z,1016.57
2022-12-18T10:23:16.012Z,1016.57
2022-12-18T10:24:16.006Z,1016.58
2022-12-18T10:25:15.985Z,1016.60
2022-12-18T10:26:16.442Z,1016.65
2022-12-18T10:27:15.956Z,1016.65
2022-12-18T10:28:15.936Z,1016.66
2022-12-18T10:29:15.935Z,1016.63
2022-12-18T10:30:15.920Z,1016.62
2022-12-18T10:31:15.974Z,1016.61
2022-12-18T10:32:15.896Z,1016.57
2022-12-18T10:33:15.877Z,1016.53
2022-12-18T10:34:15.876Z,1016.53
2022-12-18T10:35:15.861Z,1016.55
2022-12-18T10:36:15.846Z,1016.49
2022-12-18T10:37:15.825Z,1016.50
2022-12-18T10:38:15.815Z,1016.49
2022-12-18T10:39:15.805Z,1016.46
2022-12-18T10:40:21.825Z,1016.45
2022-12-18T10:41:16.777Z,1016.48
2022-12-18T10:42:15.771Z,1016.46
2022-12-18T10:43:16.715Z,1016.48
2022-12-18T10:44:16.690Z,1016.45
2022-12-18T10:45:15.724Z,1016.49
2022-12-18T10:46:15.775Z,1016.50
2022-12-18T10:47:16.661Z,1016.46
2022-12-18T10:48:15.687Z,1016.43
2022-12-18T10:49:15.677Z,1016.48
2022-12-18T10:50:15.666Z,1016.46
2022-12-18T10:51:15.647Z,1016.42
2022-12-18T10:52:15.638Z,1016.34
2022-12-18T10:53:15.617Z,1016.32
2022-12-18T10:54:15.626Z,1016.28
2022-12-18T10:55:15.586Z,1016.30
2022-12-18T10:56:15.584Z,1016.30
2022-12-18T10:57:16.518Z,1016.29
2022-12-18T10:58:15.563Z,1016.31
2022-12-18T10:59:16.507Z,1016.29
2022-12-18T11:00:15.534Z,1016.30
2022-12-18T11:01:15.660Z,1016.24
2022-12-18T11:02:16.594Z,1016.26
2022-12-18T11:03:15.615Z,1016.26
2022-12-18T11:04:15.490Z,1016.21
2022-12-18T11:05:15.480Z,1016.24
2022-12-18T11:06:15.457Z,1016.23
2022-12-18T11:07:16.408Z,1016.24
2022-12-18T11:08:15.440Z,1016.24
2022-12-18T11:09:15.687Z,1016.24
2022-12-18T11:10:15.408Z,1016.23
2022-12-18T11:11:15.395Z,1016.27
2022-12-18T11:12:15.378Z,1016.26
2022-12-18T11:13:15.389Z,1016.28
2022-12-18T11:14:15.398Z,1016.25
2022-12-18T11:15:16.289Z,1016.32
2022-12-18T11:16:16.363Z,1016.31
2022-12-18T11:17:31.589Z,1016.30
2022-12-18T11:18:17.284Z,1016.28
2022-12-18T11:19:15.341Z,1016.27
2022-12-18T11:20:15.280Z,1016.28
2022-12-18T11:21:15.287Z,1016.27
2022-12-18T11:22:15.259Z,1016.24
2022-12-18T11:23:16.197Z,1016.23
2022-12-18T11:24:16.189Z,1016.23
2022-12-18T11:25:33.412Z,1016.22
2022-12-18T11:26:17.170Z,1016.24
2022-12-18T11:27:16.157Z,1016.24
2022-12-18T11:28:15.189Z,1016.29
2022-12-18T11:29:16.139Z,1016.28
2022-12-18T11:30:15.265Z,1016.28
2022-12-18T11:31:15.186Z,1016.33
2022-12-18T11:32:16.092Z,1016.35
2022-12-18T11:33:15.111Z,1016.39
2022-12-18T11:34:30.766Z,1016.39
2022-12-18T11:35:16.101Z,1016.41
2022-12-18T11:36:15.081Z,1016.38
2022-12-18T11:37:15.060Z,1016.43
2022-12-18T11:38:15.052Z,1016.47
2022-12-18T11:39:15.991Z,1016.44
2022-12-18T11:40:15.152Z,1016.43
2022-12-18T11:41:15.020Z,1016.51
2022-12-18T11:42:15.981Z,1016.50
2022-12-18T11:43:14.984Z,1016.49
2022-12-18T11:44:15.001Z,1016.52
2022-12-18T11:45:14.965Z,1016.53
2022-12-18T11:46:19.559Z,1016.52
2022-12-18T11:47:16.893Z,1016.57
2022-12-18T11:48:14.941Z,1016.57
2022-12-18T11:49:14.922Z,1016.61
2022-12-18T11:50:14.902Z,1016.62
2022-12-18T11:51:14.891Z,1016.65
2022-12-18T11:52:14.874Z,1016.63
2022-12-18T11:53:14.865Z,1016.66
2022-12-18T11:54:15.654Z,1016.63
2022-12-18T11:55:14.848Z,1016.59
2022-12-18T11:56:14.822Z,1016.60
2022-12-18T11:57:14.806Z,1016.64
2022-12-18T11:58:14.803Z,1016.51
2022-12-18T11:59:14.792Z,1016.55
2022-12-18T12:00:14.848Z,1016.50
2022-12-18T12:01:14.850Z,1016.47
2022-12-18T12:02:14.948Z,1016.46
2022-12-18T12:03:14.865Z,1016.45
2022-12-18T12:04:14.816Z,1016.42
2022-12-18T12:05:14.713Z,1016.37